createdAt,value
2022-09-25T00:03:38.950Z,492.91
2022-09-25T00:09:10.524Z,492.74
2022-09-25T00:14:42.280Z,492.56
2022-09-25T00:20:14.274Z,492.74
2022-09-25T00:25:46.105Z,493.26
2022-09-25T00:31:17.546Z,493.61
2022-09-25T00:36:49.173Z,493.96
2022-09-25T00:42:20.854Z,494.48
2022-09-25T00:47:52.698Z,494.83
2022-09-25T00:53:24.781Z,495.01
2022-09-25T00:58:56.145Z,495.36
2022-09-25T01:04:27.556Z,495.79
2022-09-25T01:09:58.882Z,495.97
2022-09-25T01:15:30.205Z,495.97
2022-09-25T01:21:02.108Z,496.32
2022-09-25T01:26:33.647Z,496.32
2022-09-25T01:32:05.366Z,496.84
2022-09-25T01:37:36.904Z,496.67
2022-09-25T01:43:08.383Z,497.37
2022-09-25T01:48:39.858Z,497.19
2022-09-25T01:59:43.430Z,498.06
2022-09-25T02:05:15.369Z,497.71
2022-09-25T02:10:47.037Z,497.71
2022-09-25T02:16:18.579Z,497.54
2022-09-25T02:21:50.120Z,497.02
2022-09-25T02:27:22.058Z,496.84
2022-09-25T02:32:53.646Z,496.84
2022-09-25T02:38:25.558Z,496.67
2022-09-25T02:43:57.335Z,496.32
2022-09-25T02:54:58.555Z,496.49
2022-09-25T03:00:30.519Z,497.19
2022-09-25T03:11:34.136Z,498.24
2022-09-25T03:17:05.831Z,498.59
2022-09-25T03:22:37.564Z,498.94
2022-09-25T03:28:09.400Z,499.29
2022-09-25T03:33:41.420Z,499.46
2022-09-25T03:39:13.039Z,499.55
2022-09-25T03:44:44.709Z,499.72
2022-09-25T03:47:08.125Z,500.42
2022-09-25T03:52:39.611Z,500.95
2022-09-25T03:58:11.141Z,500.60
2022-09-25T04:09:11.960Z,500.25
2022-09-25T04:20:14.796Z,500.95
2022-09-25T04:25:46.057Z,501.12
2022-09-25T04:31:17.304Z,501.30
2022-09-25T04:36:48.734Z,501.12
2022-09-25T04:42:20.437Z,500.95
2022-09-25T04:47:51.828Z,500.95
2022-09-25T04:53:23.532Z,500.95
2022-09-25T04:58:54.757Z,500.77
2022-09-25T05:04:26.031Z,500.77
2022-09-25T05:09:57.284Z,500.60
2022-09-25T05:15:28.597Z,500.60
2022-09-25T05:26:33.115Z,500.77
2022-09-25T05:32:04.462Z,500.95
2022-09-25T05:37:35.837Z,500.95
2022-09-25T05:43:07.018Z,500.60
2022-09-25T05:48:38.468Z,500.07
2022-09-25T05:54:10.191Z,499.90
2022-09-25T06:05:12.849Z,499.72
2022-09-25T06:10:44.155Z,499.90
2022-09-25T06:16:15.713Z,499.72
2022-09-25T06:21:46.927Z,499.55
2022-09-25T06:38:16.934Z,499.55
2022-09-25T06:43:48.255Z,499.72
2022-09-25T06:49:19.356Z,499.55
2022-09-25T06:54:50.828Z,499.55
2022-09-25T07:00:22.119Z,499.46
2022-09-25T07:05:53.486Z,499.55
2022-09-25T07:11:24.788Z,499.55
2022-09-25T07:16:56.548Z,499.29
2022-09-25T07:22:28.006Z,498.76
2022-09-25T07:27:59.216Z,498.76
2022-09-25T07:33:30.829Z,498.41
2022-09-25T07:39:02.640Z,498.59
2022-09-25T07:44:38.272Z,498.76
2022-09-25T07:50:05.385Z,498.59
2022-09-25T07:55:43.846Z,498.41
2022-09-25T08:01:15.301Z,498.59
2022-09-25T08:06:46.486Z,498.41
2022-09-25T08:12:17.768Z,498.41
2022-09-25T08:17:49.125Z,498.41
2022-09-25T08:23:20.266Z,498.59
2022-09-25T08:28:51.706Z,498.76
2022-09-25T08:39:54.747Z,498.94
2022-09-25T08:45:26.223Z,498.59
2022-09-25T08:50:58.091Z,498.41
2022-09-25T09:01:58.960Z,498.41
2022-09-25T09:07:30.668Z,498.06
2022-09-25T09:13:01.941Z,498.06
2022-09-25T09:18:33.308Z,498.76
2022-09-25T09:24:04.711Z,499.29
2022-09-25T09:29:35.998Z,499.46
2022-09-25T09:35:07.590Z,499.55
2022-09-25T09:40:38.987Z,499.72
2022-09-25T09:51:39.843Z,500.95
2022-09-25T09:57:11.198Z,501.30
2022-09-25T10:02:42.542Z,501.65
2022-09-25T10:08:13.812Z,501.65
2022-09-25T10:13:45.287Z,501.82
2022-09-25T10:19:17.001Z,501.82
2022-09-25T10:24:48.228Z,501.65
2022-09-25T10:30:19.627Z,501.47
2022-09-25T10:41:20.717Z,501.65
2022-09-25T10:46:52.366Z,502.17
2022-09-25T10:52:24.059Z,502.35
2022-09-25T10:57:55.387Z,502.35
2022-09-25T11:08:56.171Z,502.52
2022-09-25T11:14:27.496Z,502.69
2022-09-25T11:19:59.327Z,502.87
2022-09-25T11:25:30.671Z,503.22
2022-09-25T11:31:02.477Z,503.57
2022-09-25T11:36:34.220Z,504.18
2022-09-25T11:44:25.452Z,504.53
2022-09-25T11:49:56.539Z,504.70
2022-09-25T11:55:28.069Z,504.70
2022-09-25T12:00:59.320Z,505.05
2022-09-25T12:06:30.589Z,505.40
2022-09-25T12:12:01.965Z,506.28
2022-09-25T12:17:33.255Z,506.98
2022-09-25T12:23:04.608Z,507.85
2022-09-25T12:28:35.940Z,508.20
2022-09-25T12:34:07.342Z,508.20
2022-09-25T12:39:38.541Z,508.55
2022-09-25T12:45:09.949Z,508.38
2022-09-25T12:50:41.746Z,508.20
2022-09-25T12:56:13.494Z,508.55
2022-09-25T13:01:45.444Z,508.99
2022-09-25T13:07:17.117Z,508.90
2022-09-25T13:12:48.907Z,508.99
2022-09-25T13:23:49.699Z,509.86
2022-09-25T13:29:21.540Z,510.04
2022-09-25T13:34:53.408Z,510.21
2022-09-25T13:40:25.328Z,509.86
2022-09-25T13:45:57.338Z,510.21
2022-09-25T13:51:28.757Z,510.04
2022-09-25T13:57:00.080Z,510.21
2022-09-25T14:08:01.003Z,510.56
2022-09-25T14:13:32.686Z,510.56
2022-09-25T14:19:04.162Z,510.91
2022-09-25T14:24:35.525Z,511.26
2022-09-25T14:35:36.300Z,512.14
2022-09-25T14:41:07.943Z,511.96
2022-09-25T14:46:39.477Z,512.14
2022-09-25T14:57:41.577Z,512.49
2022-09-25T15:03:12.794Z,512.66
2022-09-25T15:19:46.734Z,513.10
2022-09-25T15:25:18.321Z,513.01
2022-09-25T15:30:49.931Z,512.84
2022-09-25T15:36:21.568Z,513.10
2022-09-25T15:41:52.811Z,513.01
2022-09-25T15:47:24.265Z,512.84
2022-09-25T15:52:55.893Z,513.01
2022-09-25T15:58:27.411Z,513.01
2022-09-25T16:03:58.832Z,512.84
2022-09-25T16:09:30.105Z,512.66
2022-09-25T16:15:01.451Z,512.31
2022-09-25T16:20:32.794Z,512.14
2022-09-25T16:31:36.205Z,511.61
2022-09-25T16:37:08.510Z,511.79
2022-09-25T16:42:39.986Z,511.61
2022-09-25T16:48:11.537Z,511.79
2022-09-25T16:53:43.323Z,511.96
2022-09-25T16:59:14.997Z,512.31
2022-09-25T17:04:46.169Z,512.31
2022-09-25T17:10:17.516Z,512.49
2022-09-25T17:21:18.411Z,511.96
2022-09-25T17:26:50.103Z,511.96
2022-09-25T17:32:21.334Z,511.79
2022-09-25T17:37:52.651Z,510.91
2022-09-25T17:43:24.022Z,510.74
2022-09-25T17:48:55.418Z,511.09
2022-09-25T17:54:27.229Z,510.91
2022-09-25T17:59:58.537Z,511.09
2022-09-25T18:05:30.315Z,510.91
2022-09-25T18:11:02.067Z,510.39
2022-09-25T18:16:33.519Z,509.86
2022-09-25T18:22:05.230Z,509.51
2022-09-25T18:27:36.977Z,509.16
2022-09-25T18:33:08.318Z,508.90
2022-09-25T18:38:40.109Z,508.73
2022-09-25T18:44:11.915Z,508.55
2022-09-25T18:55:13.425Z,508.20
2022-09-25T19:00:44.932Z,508.03
2022-09-25T19:06:18.103Z,508.03
2022-09-25T19:11:49.656Z,507.33
2022-09-25T19:17:21.261Z,507.50
2022-09-25T19:22:52.711Z,506.98
2022-09-25T19:28:24.456Z,506.98
2022-09-25T19:33:56.132Z,506.80
2022-09-25T19:39:27.562Z,506.80
2022-09-25T19:50:27.878Z,506.28
2022-09-25T19:58:23.317Z,504.70
2022-09-25T20:03:52.233Z,505.05
2022-09-25T20:14:52.913Z,505.23
2022-09-25T20:20:24.246Z,505.05
2022-09-25T20:25:55.552Z,504.88
2022-09-25T20:31:27.057Z,504.70
2022-09-25T20:36:58.230Z,504.70
2022-09-25T20:42:29.531Z,504.53
2022-09-25T20:48:02.005Z,504.36
2022-09-25T20:53:33.744Z,504.36
2022-09-25T20:59:05.436Z,504.53
2022-09-25T21:04:36.721Z,504.70
2022-09-25T21:10:07.994Z,504.53
2022-09-25T21:15:39.378Z,504.36
2022-09-25T21:21:10.950Z,504.18
2022-09-25T21:26:42.509Z,504.18
2022-09-25T21:32:13.603Z,504.53
2022-09-25T21:37:45.199Z,504.53
2022-09-25T21:43:16.846Z,504.70
2022-09-25T21:48:48.053Z,504.53
2022-09-25T21:54:19.354Z,504.53
2022-09-25T21:59:50.695Z,504.36
2022-09-25T22:05:22.275Z,504.36
2022-09-25T22:10:53.701Z,504.36
2022-09-25T22:21:54.555Z,504.53
2022-09-25T22:27:25.977Z,504.53
2022-09-25T22:32:57.717Z,504.36
2022-09-25T22:38:29.423Z,504.53
2022-09-25T22:44:01.283Z,505.05
2022-09-25T23:00:31.205Z,505.23
2022-09-25T23:06:02.972Z,505.40
2022-09-25T23:11:34.596Z,506.28
2022-09-25T23:17:05.953Z,506.63
2022-09-25T23:22:37.396Z,506.80
2022-09-25T23:28:09.059Z,506.98
2022-09-25T23:33:40.487Z,507.50
2022-09-25T23:39:11.861Z,507.85
2022-09-25T23:44:43.122Z,507.85
2022-09-25T23:50:14.359Z,508.38
2022-09-25T23:55:45.695Z,508.38
